Pacific Titan — WCZ6844 — position and weather

sailwx.info

Track history (hours):
 
Tides and Currents Weather Stations Pressure Air Temp Water Temp Dewpoint Dewpoint Depression Visibility Wind Speed Wind Dir Waves Ship Positions

Pacific Titan

More information available from US FCC via Universal Licensing System and Coast Guard Vessel Documentation Center.

Last reported at 2014-Sep-18 17:34 UTC. Time now 2014-Sep-18 17:46 UTC.
Position N 49°22' W 123°52'.

Type: Tow > 200 m length. MMSI: 338855000.

Date/timePositionNaut miles runAvg speedWind from/ knotsBaromVisibWave heightAir tempDewpointWater temp
2014-Sep-18 17:34N 49°22' W 123°52'1010.0
2014-Sep-18 16:34N 49°16' W 123°40'1010.1
2014-Sep-18 15:33N 49°09' W 123°29'10 9.8
2014-Sep-18 14:34N 49°03' W 123°18'9 9.0
2014-Sep-18 13:34N 48°56' W 123°08'9 8.7
2014-Sep-18 12:33N 48°51' W 122°58'9 8.9
2014-Sep-18 11:33N 48°46' W 122°47'8 7.7
2014-Sep-18 10:33N 48°38' W 122°44'8 7.7
2014-Sep-18 09:34N 48°31' W 122°44'9 8.7
2014-Sep-18 08:32N 48°22' W 122°45'10 9.0
2014-Sep-18 07:28N 48°12' W 122°48'9 9.6
2014-Sep-18 06:33N 48°06' W 122°38'9 9.5
2014-Sep-18 05:34N 47°57' W 122°33'9 9.3
2014-Sep-18 04:33N 47°49' W 122°27'10 9.8
2014-Sep-18 03:34N 47°39' W 122°27'7 6.5
2014-Sep-18 02:34N 47°34' W 122°21'1 1.2
2014-Sep-18 01:34N 47°33' W 122°21'0 0.0
2014-Sep-18 00:34N 47°33' W 122°21'0 0.0
2014-Sep-17 23:34N 47°33' W 122°21'1 0.7
2014-Sep-17 22:33N 47°34' W 122°21'7 7.4
2014-Sep-17 21:34N 47°40' W 122°25'3 2.7
2014-Sep-17 20:33N 47°39' W 122°22'0 0.0
2014-Sep-17 19:33N 47°39' W 122°22'0 0.0
2014-Sep-17 18:34N 47°39' W 122°22'  
2014-Sep-14 17:53N 47°39' W 122°22'1 3.7
2014-Sep-14 17:33N 47°40' W 122°24'0 0.0
2014-Sep-14 17:33N 47°40' W 122°24'2 2.2
2014-Sep-14 16:33N 47°38' W 122°26'0 9.5
2014-Sep-14 16:31N 47°38' W 122°25'6 5.9
2014-Sep-14 15:33N 47°33' W 122°21'2 2.5
2014-Sep-14 14:34N 47°36' W 122°22'7 6.7
2014-Sep-14 13:33N 47°41' W 122°28'9 9.5
2014-Sep-14 12:33N 47°50' W 122°28'9 9.0
2014-Sep-14 11:33N 47°58' W 122°36'9 8.5
2014-Sep-14 10:26N 48°07' W 122°40'7 7.6
2014-Sep-14 09:32N 48°12' W 122°47'9 9.1
2014-Sep-14 08:33N 48°21' W 122°46'1212.0
2014-Sep-14 07:33N 48°33' W 122°45'1110.7
2014-Sep-14 06:33N 48°44' W 122°46'10 9.9
2014-Sep-14 05:33N 48°49' W 122°59'1111.1
2014-Sep-14 04:33N 48°55' W 123°12'1110.6
2014-Sep-14 03:33N 49°03' W 123°24'10 9.6
2014-Sep-14 02:33N 49°09' W 123°34'10 9.7
2014-Sep-14 01:33N 49°16' W 123°45'39 9.7
2014-Sep-13 21:33N 49°39' W 124°34'9 9.4
2014-Sep-13 20:33N 49°45' W 124°45'9 8.9
2014-Sep-13 19:32N 49°50' W 124°56'10 9.7
2014-Sep-13 18:33N 49°57' W 125°07'7 6.5
2014-Sep-13 17:31N 50°02' W 125°14'8 8.1
2014-Sep-13 16:33N 50°08' W 125°21'10 9.9
2014-Sep-13 15:33N 50°18' W 125°25'10 9.7
2014-Sep-13 14:31N 50°22' W 125°39'1311.2
2014-Sep-13 13:20N 50°25' W 125°59'1310.0
2014-Sep-13 12:05N 50°29' W 126°18'5 9.9
2014-Sep-13 11:33N 50°30' W 126°26'10 9.7
2014-Sep-13 10:33N 50°32' W 126°41'10 9.8
2014-Sep-13 09:33N 50°39' W 126°50'1010.3
2014-Sep-13 08:33N 50°44' W 127°05'10 9.8
2014-Sep-13 07:33N 50°51' W 127°17'10 9.5
2014-Sep-13 06:33N 50°57' W 127°28'8 8.4
2014-Sep-13 05:33N 51°02' W 127°38'9 8.8
2014-Sep-13 04:33N 51°08' W 127°49'9 9.0
2014-Sep-13 03:33N 51°17' W 127°54'9 9.6
2014-Sep-13 02:33N 51°24' W 128°03'20 9.8
2014-Sep-13 00:33N 51°39' W 128°23'  
Track history (hours):
 
Tides and Currents Weather Stations Pressure Air Temp Water Temp Dewpoint Dewpoint Depression Visibility Wind Speed Wind Dir Waves Ship Positions

Pacific Titan

More information available from US FCC via Universal Licensing System and Coast Guard Vessel Documentation Center.

Last reported at 2014-Sep-18 17:34 UTC. Time now 2014-Sep-18 17:46 UTC.
Position N 49°22' W 123°52'.

Type: Tow > 200 m length. MMSI: 338855000.

Date/timePositionNaut miles runAvg speedWind from/ knotsBaromVisibWave heightAir tempDewpointWater temp
2014-Sep-18 17:34N 49°22' W 123°52'1010.0
2014-Sep-18 16:34N 49°16' W 123°40'1010.1
2014-Sep-18 15:33N 49°09' W 123°29'10 9.8
2014-Sep-18 14:34N 49°03' W 123°18'9 9.0
2014-Sep-18 13:34N 48°56' W 123°08'9 8.7
2014-Sep-18 12:33N 48°51' W 122°58'9 8.9
2014-Sep-18 11:33N 48°46' W 122°47'8 7.7
2014-Sep-18 10:33N 48°38' W 122°44'8 7.7
2014-Sep-18 09:34N 48°31' W 122°44'9 8.7
2014-Sep-18 08:32N 48°22' W 122°45'10 9.0
2014-Sep-18 07:28N 48°12' W 122°48'9 9.6
2014-Sep-18 06:33N 48°06' W 122°38'9 9.5
2014-Sep-18 05:34N 47°57' W 122°33'9 9.3
2014-Sep-18 04:33N 47°49' W 122°27'10 9.8
2014-Sep-18 03:34N 47°39' W 122°27'7 6.5
2014-Sep-18 02:34N 47°34' W 122°21'1 1.2
2014-Sep-18 01:34N 47°33' W 122°21'0 0.0
2014-Sep-18 00:34N 47°33' W 122°21'0 0.0
2014-Sep-17 23:34N 47°33' W 122°21'1 0.7
2014-Sep-17 22:33N 47°34' W 122°21'7 7.4
2014-Sep-17 21:34N 47°40' W 122°25'3 2.7
2014-Sep-17 20:33N 47°39' W 122°22'0 0.0
2014-Sep-17 19:33N 47°39' W 122°22'0 0.0
2014-Sep-17 18:34N 47°39' W 122°22'  
2014-Sep-14 17:53N 47°39' W 122°22'1 3.7
2014-Sep-14 17:33N 47°40' W 122°24'0 0.0
2014-Sep-14 17:33N 47°40' W 122°24'2 2.2
2014-Sep-14 16:33N 47°38' W 122°26'0 9.5
2014-Sep-14 16:31N 47°38' W 122°25'6 5.9
2014-Sep-14 15:33N 47°33' W 122°21'2 2.5
2014-Sep-14 14:34N 47°36' W 122°22'7 6.7
2014-Sep-14 13:33N 47°41' W 122°28'9 9.5
2014-Sep-14 12:33N 47°50' W 122°28'9 9.0
2014-Sep-14 11:33N 47°58' W 122°36'9 8.5
2014-Sep-14 10:26N 48°07' W 122°40'7 7.6
2014-Sep-14 09:32N 48°12' W 122°47'9 9.1
2014-Sep-14 08:33N 48°21' W 122°46'1212.0
2014-Sep-14 07:33N 48°33' W 122°45'1110.7
2014-Sep-14 06:33N 48°44' W 122°46'10 9.9
2014-Sep-14 05:33N 48°49' W 122°59'1111.1
2014-Sep-14 04:33N 48°55' W 123°12'1110.6
2014-Sep-14 03:33N 49°03' W 123°24'10 9.6
2014-Sep-14 02:33N 49°09' W 123°34'10 9.7
2014-Sep-14 01:33N 49°16' W 123°45'39 9.7
2014-Sep-13 21:33N 49°39' W 124°34'9 9.4
2014-Sep-13 20:33N 49°45' W 124°45'9 8.9
2014-Sep-13 19:32N 49°50' W 124°56'10 9.7
2014-Sep-13 18:33N 49°57' W 125°07'7 6.5
2014-Sep-13 17:31N 50°02' W 125°14'8 8.1
2014-Sep-13 16:33N 50°08' W 125°21'10 9.9
2014-Sep-13 15:33N 50°18' W 125°25'10 9.7
2014-Sep-13 14:31N 50°22' W 125°39'1311.2
2014-Sep-13 13:20N 50°25' W 125°59'1310.0
2014-Sep-13 12:05N 50°29' W 126°18'5 9.9
2014-Sep-13 11:33N 50°30' W 126°26'10 9.7
2014-Sep-13 10:33N 50°32' W 126°41'10 9.8
2014-Sep-13 09:33N 50°39' W 126°50'1010.3
2014-Sep-13 08:33N 50°44' W 127°05'10 9.8
2014-Sep-13 07:33N 50°51' W 127°17'10 9.5
2014-Sep-13 06:33N 50°57' W 127°28'8 8.4
2014-Sep-13 05:33N 51°02' W 127°38'9 8.8
2014-Sep-13 04:33N 51°08' W 127°49'9 9.0
2014-Sep-13 03:33N 51°17' W 127°54'9 9.6
2014-Sep-13 02:33N 51°24' W 128°03'20 9.8
2014-Sep-13 00:33N 51°39' W 128°23'  

Dump ship's entire track history